• Terra Properties Inc
  • Software Answer


Nearby METAR Reports


KEDC - Austin Exec, Texas, USA
Distance from station: SW 16mi, 25km
Updated: Sat, 18-Nov-2017 10:55pm CST
Clear
Clear
 Wind from N
Wind: N 17 mph , 28 km/h, Gust: 23 mph , 37 km/h
Temperature: 54°F , 12°C
Dew Point: 36°F , 2°C
Humidity: 51%
Barometer: 30.29 inHg , 1025.7 hPa
Clouds: Clear
Visibility: 10 miles , 16 km
2017/11/19 04:55 KEDC 190455Z AUTO 01015G20KT 10SM CLR 12/02 A3029 RMK AO2
KGTU - Georgetown, Texas, USA
Distance from station: WNW 17mi, 28km
Updated: Sat, 18-Nov-2017 10:56pm CST
Clear
Clear
 Wind from N
Wind: N 13 mph , 20 km/h, Gust: 20 mph , 31 km/h
Temperature: 54°F , 12°C
Dew Point: 36°F , 2°C
Humidity: 51%
Barometer: 30.31 inHg , 1026.4 hPa
Clouds: Clear
Visibility: 10 miles , 16 km
2017/11/19 04:56 KGTU 190456Z AUTO 36011G17KT 10SM CLR 12/02 A3031 RMK AO2 SLP261 T01220017
 
KATT - Austin/Mabry, Texas, USA
Distance from station: SW 28mi, 45km
Updated: Sat, 18-Nov-2017 10:51pm CST
Clear
Clear
 Wind from N
Wind: N 9 mph , 15 km/h
Temperature: 55°F , 13°C
Barometer: 30.29 inHg , 1025.7 hPa
Clouds: Clear
Visibility: 10 miles , 16 km
2017/11/19 04:51 KATT 190451Z AUTO 36008KT 10SM CLR 13/ A3029 RMK AO2 SLP251 T0133 $
KAUS - Austin, Texas, USA
Distance from station: SSW 32mi, 51km
Updated: Sat, 18-Nov-2017 10:53pm CST
Clear
Clear
 Wind from N
Wind: N 18 mph , 30 km/h
Temperature: 55°F , 13°C
Dew Point: 36°F , 2°C
Humidity: 47%
Barometer: 30.28 inHg , 1025.4 hPa
Clouds: Clear
Visibility: 10 miles , 16 km
2017/11/19 04:53 KAUS 190453Z 01016KT 10SM CLR 13/02 A3028 RMK AO2 PK WND 01028/0411 SLP247 T01330022
 
KRYW - Lago Vista, Texas, USA
Distance from station: W 33mi, 54km
Updated: Sat, 18-Nov-2017 10:55pm CST
Clear
Clear
 Wind from NNE
Wind: NNE 7 mph , 11 km/h
Temperature: 54°F , 12°C
Dew Point: 36°F , 2°C
Humidity: 51%
Barometer: 30.30 inHg , 1026.1 hPa
Clouds: Clear
Visibility: 10 miles , 16 km
2017/11/19 04:55 KRYW 190455Z AUTO 02006KT 10SM CLR 12/02 A3030 RMK AO2 T01150015
KILE - Killeen Muni, Texas, USA
Distance from station: NNW 37mi, 59km
Updated: Sat, 18-Nov-2017 10:56pm CST
Clear
Clear
 Wind from N
Wind: N 12 mph , 19 km/h
Temperature: 52°F , 11°C
Dew Point: 36°F , 2°C
Humidity: 54%
Barometer: 30.31 inHg , 1026.4 hPa
Clouds: Clear
Visibility: 10 miles , 16 km
2017/11/19 04:56 KILE 190456Z AUTO 35010KT 10SM CLR 11/02 A3031 RMK AO2 SLP276 T01060022
 
KTPL - Temple/Miller, Texas, USA
Distance from station: N 38mi, 61km
Updated: Sat, 18-Nov-2017 10:51pm CST
Clear
Clear
 Wind from N
Wind: N 14 mph , 22 km/h
Temperature: 52°F , 11°C
Dew Point: 36°F , 2°C
Humidity: 54%
Barometer: 30.30 inHg , 1026.1 hPa
Clouds: Clear
Visibility: 10 miles , 16 km
2017/11/19 04:51 KTPL 190451Z AUTO 35012KT 10SM CLR 11/02 A3030 RMK AO2 SLP271 T01060022
KGYB - Giddings-Lee, Texas, USA
Distance from station: SE 39mi, 62km
Updated: Sat, 18-Nov-2017 10:55pm CST
Clear
Clear
 Wind from N
Wind: N 10 mph , 17 km/h, Gust: 21 mph , 33 km/h
Temperature: 55°F , 13°C
Dew Point: 37°F , 3°C
Humidity: 51%
Barometer: 30.27 inHg , 1025.1 hPa
Clouds: Clear
Visibility: 10 miles , 16 km
2017/11/19 04:55 KGYB 190455Z AUTO 36009G18KT 330V030 10SM CLR 13/03 A3027 RMK AO2 T01310030
 
KGRK - Gray/Ft Hood, Texas, USA
Distance from station: NW 42mi, 67km
Updated: Sat, 18-Nov-2017 10:58pm CST
Few Clouds
Few Clouds
 Wind from NNE
Wind: NNE 9 mph , 15 km/h
Temperature: 50°F , 10°C
Wind Chill: 46°F , 8°C
Dew Point: 36°F , 2°C
Humidity: 58%
Barometer: 30.29 inHg , 1025.7 hPa
Clouds: Few Clouds
Visibility: 10 miles , 16 km
Cloud details: Few Clouds 28000 ft
2017/11/19 04:58 KGRK 190458Z 02008KT 10SM FEW280 10/02 A3029 RMK AO2A SLP253 WND DATA ESTMD T01030016 $
KHLR - Ft Hood/Killeen, Texas, USA
Distance from station: NNW 42mi, 67km
Updated: Sat, 18-Nov-2017 10:58pm CST
Few Clouds
Few Clouds
 Wind from N
Wind: N 13 mph , 20 km/h
Temperature: 52°F , 11°C
Dew Point: 36°F , 2°C
Humidity: 54%
Barometer: 30.27 inHg , 1025.1 hPa
Clouds: Few Clouds
Visibility: 10 miles , 16 km
Cloud details: Few Clouds 28000 ft
2017/11/19 04:58 KHLR 190458Z AUTO 36011KT 10SM FEW280 11/02 A3027 RMK AO2 SLP245 T01050017 $
 
KRWV - Caldwell, Texas, USA
Distance from station: E 43mi, 69km
Updated: Sat, 18-Nov-2017 10:55pm CST
Clear
Clear
 Wind from N
Wind: N 12 mph , 19 km/h, Gust: 22 mph , 35 km/h
Temperature: 55°F , 13°C
Dew Point: 37°F , 3°C
Humidity: 51%
Barometer: 30.27 inHg , 1025.1 hPa
Clouds: Clear
Visibility: 10 miles , 16 km
2017/11/19 04:55 KRWV 190455Z AUTO 36010G19KT 10SM CLR 13/03 A3027 RMK AO2 T01260034
KBMQ - Burnet, Texas, USA
Distance from station: WNW 50mi, 80km
Updated: Sat, 18-Nov-2017 10:53pm CST
Clear
Clear
 Wind from N
Wind: N 12 mph , 19 km/h, Gust: 18 mph , 30 km/h
Temperature: 52°F , 11°C
Dew Point: 34°F , 1°C
Humidity: 50%
Barometer: 30.32 inHg , 1026.8 hPa
Clouds: Clear
Visibility: 10 miles , 16 km
2017/11/19 04:53 KBMQ 190453Z AUTO 01010G16KT 10SM CLR 11/01 A3032 RMK AO2 SLP257 T01110011 $